createdAt,value
2023-01-10T00:00:19.602Z,64.45
2023-01-10T00:01:19.739Z,64.45
2023-01-10T00:02:19.959Z,64.45
2023-01-10T00:03:20.084Z,64.58
2023-01-10T00:04:20.272Z,64.45
2023-01-10T00:05:20.429Z,64.45
2023-01-10T00:06:20.597Z,64.34
2023-01-10T00:07:20.781Z,64.34
2023-01-10T00:08:20.934Z,64.55
2023-01-10T00:09:21.104Z,64.65
2023-01-10T00:10:21.265Z,64.55
2023-01-10T00:11:21.436Z,64.55
2023-01-10T00:12:21.603Z,64.58
2023-01-10T00:13:21.764Z,64.65
2023-01-10T00:14:21.951Z,64.55
2023-01-10T00:15:22.120Z,64.65
2023-01-10T00:16:22.364Z,64.55
2023-01-10T00:17:22.431Z,64.55
2023-01-10T00:18:22.601Z,64.45
2023-01-10T00:19:22.784Z,64.34
2023-01-10T00:20:22.944Z,64.24
2023-01-10T00:21:23.104Z,64.34
2023-01-10T00:22:23.307Z,64.34
2023-01-10T00:23:23.469Z,64.34
2023-01-10T00:24:23.685Z,64.65
2023-01-10T00:25:23.837Z,64.45
2023-01-10T00:26:24.046Z,64.58
2023-01-10T00:27:24.201Z,64.45
2023-01-10T00:28:24.367Z,64.48
2023-01-10T00:29:24.533Z,64.58
2023-01-10T00:30:24.716Z,64.68
2023-01-10T00:31:24.893Z,64.78
2023-01-10T00:32:25.022Z,64.89
2023-01-10T00:33:25.191Z,64.89
2023-01-10T00:34:25.370Z,64.89
2023-01-10T00:35:25.524Z,64.89
2023-01-10T00:36:25.691Z,64.99
2023-01-10T00:37:25.852Z,64.99
2023-01-10T00:38:26.015Z,64.99
2023-01-10T00:39:26.217Z,64.89
2023-01-10T00:40:26.358Z,64.78
2023-01-10T00:41:26.512Z,64.99
2023-01-10T00:42:26.717Z,64.99
2023-01-10T00:43:26.882Z,65.09
2023-01-10T00:44:27.062Z,65.09
2023-01-10T00:45:27.227Z,65.19
2023-01-10T00:46:27.457Z,65.30
2023-01-10T00:48:42.018Z,65.40
2023-01-10T00:52:10.975Z,65.84
2023-01-10T00:53:11.130Z,65.84
2023-01-10T00:54:11.297Z,66.04
2023-01-10T00:56:37.766Z,65.84
2023-01-10T00:57:26.041Z,65.84
2023-01-10T00:58:26.262Z,65.84
2023-01-10T00:59:26.381Z,65.73
2023-01-10T01:00:26.551Z,65.70
2023-01-10T01:01:26.849Z,65.80
2023-01-10T01:02:27.040Z,65.80
2023-01-10T01:03:27.053Z,65.80
2023-01-10T01:04:27.270Z,65.70
2023-01-10T01:05:27.420Z,65.60
2023-01-10T01:06:27.586Z,65.70
2023-01-10T01:07:27.741Z,65.60
2023-01-10T01:08:27.931Z,65.60
2023-01-10T01:09:28.107Z,65.70
2023-01-10T01:10:28.277Z,65.70
2023-01-10T01:11:28.435Z,65.80
2023-01-10T01:12:28.604Z,65.84
2023-01-10T01:13:28.775Z,65.94
2023-01-10T01:14:28.939Z,66.04
2023-01-10T01:15:29.184Z,66.14
2023-01-10T01:16:29.290Z,66.04
2023-01-10T01:17:29.446Z,66.04
2023-01-10T01:18:29.624Z,66.14
2023-01-10T01:19:29.785Z,66.14
2023-01-10T01:20:29.953Z,66.14
2023-01-10T01:21:30.154Z,66.25
2023-01-10T01:22:30.301Z,66.35
2023-01-10T01:23:30.453Z,66.35
2023-01-10T01:24:30.616Z,66.38
2023-01-10T01:25:30.774Z,66.48
2023-01-10T01:26:30.962Z,66.48
2023-01-10T01:27:31.113Z,66.78
2023-01-10T01:28:31.277Z,66.78
2023-01-10T01:29:42.253Z,66.89
2023-01-10T01:30:32.626Z,66.78
2023-01-10T01:31:31.842Z,66.89
2023-01-10T01:32:31.995Z,66.89
2023-01-10T01:33:32.174Z,66.78
2023-01-10T01:34:32.342Z,66.78
2023-01-10T01:35:32.503Z,66.69
2023-01-10T01:36:32.677Z,66.78
2023-01-10T01:37:32.836Z,66.78
2023-01-10T01:38:33.001Z,66.72
2023-01-10T01:39:33.154Z,67.02
2023-01-10T01:40:33.357Z,67.02
2023-01-10T01:41:33.541Z,66.92
2023-01-10T01:42:33.697Z,67.02
2023-01-10T01:43:33.847Z,67.13
2023-01-10T01:44:34.014Z,67.13
2023-01-10T01:45:34.183Z,67.33
2023-01-10T01:46:34.402Z,67.46
2023-01-10T01:47:34.516Z,67.57
2023-01-10T01:48:34.687Z,67.57
2023-01-10T01:49:34.852Z,67.67
2023-01-10T01:50:35.033Z,67.67
2023-01-10T01:51:35.190Z,67.77
2023-01-10T01:52:35.354Z,67.77
2023-01-10T01:53:35.542Z,67.87
2023-01-10T01:54:35.695Z,67.97
2023-01-10T01:55:35.852Z,67.87
2023-01-10T01:56:36.023Z,67.97
2023-01-10T01:57:36.192Z,67.87
2023-01-10T01:58:36.371Z,67.87
2023-01-10T01:59:36.582Z,67.84
2023-01-10T02:00:36.718Z,67.94
2023-01-10T02:01:36.952Z,67.94
2023-01-10T02:02:37.129Z,67.84
2023-01-10T02:03:37.204Z,67.74
2023-01-10T02:04:37.406Z,67.84
2023-01-10T02:05:37.542Z,67.74
2023-01-10T02:06:37.713Z,67.54
2023-01-10T02:07:37.922Z,67.54
2023-01-10T02:08:38.043Z,67.64
2023-01-10T02:09:38.226Z,67.54
2023-01-10T02:10:38.393Z,67.64
2023-01-10T02:11:38.542Z,67.54
2023-01-10T02:12:38.708Z,67.64
2023-01-10T02:13:38.910Z,67.64
2023-01-10T02:14:39.059Z,67.54
2023-01-10T02:15:39.287Z,67.43
2023-01-10T02:16:39.401Z,67.64
2023-01-10T02:17:39.561Z,67.64
2023-01-10T02:18:39.753Z,67.64
2023-01-10T02:19:39.939Z,67.84
2023-01-10T02:20:40.091Z,67.84
2023-01-10T02:21:40.264Z,67.84
2023-01-10T02:22:40.428Z,67.84
2023-01-10T02:23:40.588Z,67.84
2023-01-10T02:24:40.762Z,67.84
2023-01-10T02:25:40.958Z,67.84
2023-01-10T02:26:41.109Z,67.84
2023-01-10T02:27:41.251Z,67.74
2023-01-10T02:28:41.413Z,67.94
2023-01-10T02:29:41.574Z,67.84
2023-01-10T02:30:41.757Z,67.81
2023-01-10T02:31:41.913Z,67.71
2023-01-10T02:32:53.446Z,67.71
2023-01-10T02:33:43.261Z,67.71
2023-01-10T02:34:42.450Z,67.50
2023-01-10T02:35:42.630Z,67.50
2023-01-10T02:36:42.819Z,67.50
2023-01-10T02:37:42.969Z,67.30
2023-01-10T02:38:43.132Z,67.40
2023-01-10T02:39:43.293Z,67.60
2023-01-10T02:40:43.460Z,67.60
2023-01-10T02:41:43.633Z,67.60
2023-01-10T02:42:43.804Z,67.71
2023-01-10T02:43:43.958Z,67.60
2023-01-10T02:44:44.110Z,67.71
2023-01-10T02:45:44.320Z,67.50
2023-01-10T02:46:44.546Z,67.50
2023-01-10T02:47:44.658Z,67.50
2023-01-10T02:48:44.817Z,67.40
2023-01-10T02:49:45.016Z,67.50
2023-01-10T02:50:45.188Z,67.50
2023-01-10T02:51:45.359Z,67.30
2023-01-10T02:52:45.519Z,67.30
2023-01-10T02:53:45.683Z,67.30
2023-01-10T02:54:45.844Z,67.19
2023-01-10T02:55:46.029Z,67.30
2023-01-10T02:56:46.181Z,67.19
2023-01-10T02:57:46.343Z,67.19
2023-01-10T02:58:46.506Z,67.19
2023-01-10T02:59:46.670Z,67.19
2023-01-10T03:00:46.847Z,67.19
2023-01-10T03:01:47.047Z,67.30
2023-01-10T03:02:47.167Z,67.19
2023-01-10T03:03:47.330Z,67.19
2023-01-10T03:04:47.564Z,67.19
2023-01-10T03:05:47.699Z,67.19
2023-01-10T03:06:47.859Z,67.10
2023-01-10T03:07:48.029Z,67.19
2023-01-10T03:08:48.186Z,67.19
2023-01-10T03:09:48.351Z,67.30
2023-01-10T03:10:48.519Z,67.30
2023-01-10T03:11:48.678Z,67.19
2023-01-10T03:12:48.847Z,67.30
2023-01-10T03:13:49.018Z,67.19
2023-01-10T03:14:49.178Z,67.33
2023-01-10T03:15:49.377Z,67.54
2023-01-10T03:16:49.504Z,67.54
2023-01-10T03:17:49.662Z,67.74
2023-01-10T03:18:49.817Z,67.74
2023-01-10T03:19:50.014Z,67.84
2023-01-10T03:20:50.170Z,67.84
2023-01-10T03:21:50.328Z,67.94
2023-01-10T03:22:50.495Z,68.08
2023-01-10T03:23:50.650Z,68.18
2023-01-10T03:24:50.824Z,67.97
2023-01-10T03:25:51.003Z,67.97
2023-01-10T03:26:51.160Z,67.87
2023-01-10T03:27:51.334Z,67.97
2023-01-10T03:28:51.478Z,67.97
2023-01-10T03:29:51.644Z,68.18
2023-01-10T03:30:51.816Z,68.28
2023-01-10T03:31:51.995Z,68.28
2023-01-10T03:32:52.148Z,68.15
2023-01-10T03:33:52.341Z,68.18
2023-01-10T03:34:52.528Z,68.25
2023-01-10T03:35:52.667Z,68.35
2023-01-10T03:36:52.830Z,68.25
2023-01-10T03:37:52.997Z,68.46
2023-01-10T03:38:53.157Z,68.35
2023-01-10T03:39:53.347Z,68.35
2023-01-10T03:40:53.509Z,68.15
2023-01-10T03:41:53.669Z,68.15
2023-01-10T03:42:53.827Z,68.25
2023-01-10T03:43:54.000Z,68.35
2023-01-10T03:44:54.168Z,68.25
2023-01-10T03:45:54.331Z,68.25
2023-01-10T03:46:54.565Z,68.25
2023-01-10T03:47:54.660Z,68.25
2023-01-10T03:48:54.820Z,68.35
2023-01-10T03:49:55.021Z,68.55
2023-01-10T03:50:55.160Z,68.66
2023-01-10T03:51:55.318Z,68.76
2023-01-10T03:52:55.477Z,68.66
2023-01-10T03:53:55.648Z,68.76
2023-01-10T03:54:55.816Z,68.76
2023-01-10T03:55:55.986Z,68.55
2023-01-10T03:56:56.151Z,68.87
2023-01-10T03:57:56.322Z,69.07
2023-01-10T03:58:56.474Z,68.97
2023-01-10T03:59:56.657Z,68.97
2023-01-10T04:00:56.938Z,69.07
2023-01-10T04:01:57.123Z,69.07
2023-01-10T04:02:57.175Z,69.07
2023-01-10T04:03:57.403Z,69.17
2023-01-10T04:04:57.528Z,69.07
2023-01-10T04:05:57.708Z,69.07
2023-01-10T04:06:57.873Z,69.07
2023-01-10T04:07:58.037Z,69.07
2023-01-10T04:08:58.200Z,69.07
2023-01-10T04:09:58.375Z,68.97
2023-01-10T04:10:58.520Z,68.97
2023-01-10T04:11:58.684Z,68.97
2023-01-10T04:12:58.836Z,68.97
2023-01-10T04:13:59.005Z,69.51
2023-01-10T04:14:59.176Z,69.41
2023-01-10T04:15:59.372Z,69.61
2023-01-10T04:16:59.527Z,69.71
2023-01-10T04:17:59.697Z,69.92
2023-01-10T04:18:59.863Z,69.92
2023-01-10T04:20:00.042Z,69.82
2023-01-10T04:21:00.196Z,69.61
2023-01-10T04:22:00.355Z,69.92
2023-01-10T04:23:00.536Z,69.71
2023-01-10T04:24:00.692Z,69.71
2023-01-10T04:25:00.871Z,69.82
2023-01-10T04:26:01.036Z,69.82
2023-01-10T04:27:01.205Z,69.71
2023-01-10T04:28:01.370Z,69.82
2023-01-10T04:29:01.525Z,70.12
2023-01-10T04:30:01.715Z,70.03
2023-01-10T04:31:01.883Z,70.23
2023-01-10T04:32:02.032Z,70.33
2023-01-10T04:33:02.201Z,70.23
2023-01-10T04:34:02.363Z,70.23
2023-01-10T04:35:02.539Z,70.43
2023-01-10T04:36:02.706Z,70.57
2023-01-10T04:37:02.869Z,70.47
2023-01-10T04:38:03.032Z,70.12
2023-01-10T04:39:03.184Z,70.33
2023-01-10T04:40:03.376Z,70.03
2023-01-10T04:41:03.533Z,70.12
2023-01-10T04:42:03.713Z,70.03
2023-01-10T04:43:03.873Z,70.43
2023-01-10T04:44:04.035Z,70.43
2023-01-10T04:45:04.213Z,70.33
2023-01-10T04:46:04.430Z,70.43
2023-01-10T04:47:04.564Z,70.43
2023-01-10T04:48:04.739Z,70.33
2023-01-10T04:49:04.893Z,70.43
2023-01-10T04:50:05.063Z,70.43
2023-01-10T04:51:05.264Z,70.43
2023-01-10T04:52:05.425Z,70.33
2023-01-10T04:53:05.585Z,70.43
2023-01-10T04:54:05.742Z,70.23
2023-01-10T04:55:05.913Z,70.23
2023-01-10T04:56:06.106Z,69.92
2023-01-10T04:57:06.254Z,69.92
2023-01-10T04:58:06.424Z,69.99
2023-01-10T04:59:06.643Z,70.12
2023-01-10T05:00:07.043Z,70.12
2023-01-10T05:01:06.995Z,70.03
2023-01-10T05:02:07.211Z,70.12
2023-01-10T05:03:07.373Z,69.82
2023-01-10T05:04:07.465Z,69.89
2023-01-10T05:05:07.642Z,69.79
2023-01-10T05:06:07.840Z,69.89
2023-01-10T05:07:07.961Z,69.79
2023-01-10T05:08:08.129Z,69.89
2023-01-10T05:09:08.285Z,69.99
2023-01-10T05:10:08.485Z,69.92
2023-01-10T05:11:08.663Z,69.99
2023-01-10T05:12:08.842Z,69.89
2023-01-10T05:13:09.004Z,69.99
2023-01-10T05:14:09.177Z,69.99
2023-01-10T05:15:09.340Z,69.99
2023-01-10T05:16:09.584Z,69.99
2023-01-10T05:17:09.667Z,70.09
2023-01-10T05:18:09.842Z,70.09
2023-01-10T05:19:10.000Z,69.99
2023-01-10T05:20:10.203Z,69.89
2023-01-10T05:21:10.343Z,70.09
2023-01-10T05:22:10.499Z,70.09
2023-01-10T05:23:10.687Z,69.99
2023-01-10T05:24:10.851Z,69.89
2023-01-10T05:25:11.033Z,69.89
2023-01-10T05:26:11.199Z,69.99
2023-01-10T05:27:11.374Z,69.89
2023-01-10T05:28:11.559Z,69.79
2023-01-10T05:29:11.714Z,69.68
2023-01-10T05:30:11.897Z,69.68
2023-01-10T05:31:12.080Z,69.65
2023-01-10T05:32:12.241Z,69.79
2023-01-10T05:33:12.401Z,69.75
2023-01-10T05:34:12.576Z,69.55
2023-01-10T05:35:12.768Z,69.55
2023-01-10T05:36:12.940Z,69.45
2023-01-10T05:37:13.118Z,69.34
2023-01-10T05:38:13.290Z,69.45
2023-01-10T05:39:13.439Z,69.45
2023-01-10T05:40:13.598Z,69.45
2023-01-10T05:41:13.794Z,69.45
2023-01-10T05:42:13.953Z,69.45
2023-01-10T05:43:14.110Z,69.34
2023-01-10T05:44:14.966Z,69.24
2023-01-10T05:45:14.439Z,69.24
2023-01-10T05:46:14.678Z,69.24
2023-01-10T05:47:14.790Z,69.14
2023-01-10T05:48:14.969Z,69.14
2023-01-10T05:49:15.137Z,69.01
2023-01-10T05:50:15.330Z,68.93
2023-01-10T05:51:15.506Z,68.93
2023-01-10T05:52:15.666Z,68.93
2023-01-10T05:53:15.849Z,68.93
2023-01-10T05:54:16.023Z,69.04
2023-01-10T05:55:16.193Z,69.14
2023-01-10T05:56:16.359Z,69.14
2023-01-10T05:57:16.535Z,69.24
2023-01-10T05:58:16.699Z,69.24
2023-01-10T05:59:27.668Z,69.34
2023-01-10T06:00:18.078Z,69.34
2023-01-10T06:01:17.336Z,69.34
2023-01-10T06:02:17.475Z,69.34
2023-01-10T06:03:17.634Z,69.45
2023-01-10T06:04:17.747Z,69.45
2023-01-10T06:05:17.928Z,69.34
2023-01-10T06:06:18.088Z,69.45
2023-01-10T06:07:18.258Z,69.45
2023-01-10T06:08:18.439Z,69.34
2023-01-10T06:09:18.598Z,69.34
2023-01-10T06:10:18.784Z,69.24
2023-01-10T06:11:18.946Z,69.34
2023-01-10T06:12:19.120Z,69.24
2023-01-10T06:13:19.278Z,69.14
2023-01-10T06:14:19.626Z,69.14
2023-01-10T06:15:19.677Z,69.14
2023-01-10T06:16:19.878Z,69.04
2023-01-10T06:17:19.967Z,69.14
2023-01-10T06:18:20.137Z,69.24
2023-01-10T06:19:20.307Z,69.14
2023-01-10T06:20:20.496Z,69.14
2023-01-10T06:21:20.636Z,69.04
2023-01-10T06:22:20.817Z,68.93
2023-01-10T06:23:20.985Z,69.04
2023-01-10T06:24:21.191Z,68.93
2023-01-10T06:25:21.351Z,68.84
2023-01-10T06:26:21.526Z,68.84
2023-01-10T06:27:21.669Z,68.84
2023-01-10T06:28:21.839Z,68.84
2023-01-10T06:29:22.029Z,68.84
2023-01-10T06:30:22.188Z,68.73
2023-01-10T06:31:22.800Z,68.63
2023-01-10T06:32:22.544Z,68.73
2023-01-10T06:33:22.715Z,68.63
2023-01-10T06:34:22.902Z,68.84
2023-01-10T06:35:23.088Z,68.80
2023-01-10T06:36:23.276Z,68.80
2023-01-10T06:37:23.410Z,68.84
2023-01-10T06:38:23.569Z,68.90
2023-01-10T06:39:23.815Z,68.90
2023-01-10T06:40:23.928Z,68.70
2023-01-10T06:41:24.089Z,68.70
2023-01-10T06:42:24.253Z,68.90
2023-01-10T06:43:25.920Z,68.80
2023-01-10T06:44:24.591Z,68.80
2023-01-10T06:45:24.763Z,68.80
2023-01-10T06:46:24.992Z,68.80
2023-01-10T06:47:25.139Z,68.70
2023-01-10T06:48:25.284Z,68.70
2023-01-10T06:49:25.445Z,68.39
2023-01-10T06:50:25.605Z,68.39
2023-01-10T06:51:25.797Z,68.49
2023-01-10T06:52:25.953Z,68.49
2023-01-10T06:53:26.119Z,68.49
2023-01-10T06:54:26.290Z,68.19
2023-01-10T06:55:26.463Z,68.39
2023-01-10T06:56:26.622Z,68.29
2023-01-10T06:57:26.776Z,68.29
2023-01-10T06:58:26.955Z,68.29
2023-01-10T06:59:27.159Z,68.29
2023-01-10T07:00:27.320Z,68.39
2023-01-10T07:01:27.589Z,68.29
2023-01-10T07:02:27.641Z,68.16
2023-01-10T07:03:27.863Z,67.98
2023-01-10T07:04:28.004Z,67.98
2023-01-10T07:05:28.197Z,67.85
2023-01-10T07:06:28.397Z,67.85
2023-01-10T07:07:28.542Z,68.16
2023-01-10T07:08:28.696Z,67.85
2023-01-10T07:09:28.860Z,67.95
2023-01-10T07:10:29.077Z,67.78
2023-01-10T07:11:29.218Z,67.68
2023-01-10T07:12:29.364Z,67.78
2023-01-10T07:13:29.546Z,67.68
2023-01-10T07:14:29.703Z,67.68
2023-01-10T07:15:29.953Z,67.78
2023-01-10T07:16:30.152Z,67.78
2023-01-10T07:17:30.235Z,67.68
2023-01-10T07:18:30.426Z,67.57
2023-01-10T07:19:30.612Z,67.68
2023-01-10T07:20:30.821Z,67.78
2023-01-10T07:21:31.004Z,67.78
2023-01-10T07:22:31.143Z,67.88
2023-01-10T07:23:31.351Z,67.68
2023-01-10T07:24:31.501Z,67.88
2023-01-10T07:25:31.684Z,67.88
2023-01-10T07:26:31.852Z,67.78
2023-01-10T07:27:32.023Z,67.57
2023-01-10T07:28:32.203Z,67.68
2023-01-10T07:29:32.400Z,67.68
2023-01-10T07:30:32.615Z,67.78
2023-01-10T07:31:32.806Z,67.68
2023-01-10T07:32:32.951Z,67.78
2023-01-10T07:33:33.101Z,67.88
2023-01-10T07:34:33.250Z,67.88
2023-01-10T07:35:33.455Z,67.88
2023-01-10T07:36:33.641Z,67.88
2023-01-10T07:37:33.829Z,67.68
2023-01-10T07:38:33.991Z,67.78
2023-01-10T07:39:34.185Z,67.78
2023-01-10T07:40:34.341Z,67.78
2023-01-10T07:41:34.553Z,67.91
2023-01-10T07:42:34.714Z,67.81
2023-01-10T07:43:34.893Z,67.78
2023-01-10T07:44:35.082Z,68.08
2023-01-10T07:45:35.272Z,67.88
2023-01-10T07:46:35.481Z,67.78
2023-01-10T07:47:35.599Z,67.78
2023-01-10T07:48:35.769Z,67.88
2023-01-10T07:49:35.941Z,67.88
2023-01-10T07:50:36.091Z,67.88
2023-01-10T07:51:36.309Z,67.88
2023-01-10T07:52:36.470Z,67.98
2023-01-10T07:53:36.641Z,67.78
2023-01-10T07:54:36.781Z,67.78
2023-01-10T07:55:36.989Z,67.88
2023-01-10T07:56:37.171Z,67.88
2023-01-10T07:57:37.352Z,67.88
2023-01-10T07:58:37.539Z,67.57
2023-01-10T07:59:37.722Z,67.57
2023-01-10T08:00:37.916Z,67.57
2023-01-10T08:01:38.094Z,67.34
2023-01-10T08:02:38.320Z,67.34
2023-01-10T08:03:38.451Z,67.24
2023-01-10T08:04:38.584Z,67.13
2023-01-10T08:05:38.738Z,67.13
2023-01-10T08:06:38.932Z,67.03
2023-01-10T08:07:39.112Z,67.13
2023-01-10T08:08:39.271Z,67.13
2023-01-10T08:09:39.468Z,67.10
2023-01-10T08:10:39.653Z,67.10
2023-01-10T08:11:41.592Z,67.00
2023-01-10T08:12:40.023Z,66.90
2023-01-10T08:13:40.270Z,67.00
2023-01-10T08:14:40.451Z,67.00
2023-01-10T08:15:40.617Z,67.00
2023-01-10T08:16:40.799Z,67.00
2023-01-10T08:17:40.944Z,66.80
2023-01-10T08:18:41.132Z,67.10
2023-01-10T08:19:41.319Z,66.80
2023-01-10T08:20:41.462Z,66.80
2023-01-10T08:21:41.660Z,66.69
2023-01-10T08:22:41.823Z,66.80
2023-01-10T08:23:41.982Z,66.69
2023-01-10T08:24:42.154Z,66.90
2023-01-10T08:25:42.310Z,66.80
2023-01-10T08:26:42.473Z,66.69
2023-01-10T08:27:42.669Z,66.49
2023-01-10T08:28:42.863Z,66.49
2023-01-10T08:29:42.991Z,66.46
2023-01-10T08:30:43.172Z,66.36
2023-01-10T08:31:43.378Z,66.25
2023-01-10T08:32:43.549Z,66.02
2023-01-10T08:33:43.739Z,65.92
2023-01-10T08:34:43.923Z,65.61
2023-01-10T08:35:44.109Z,65.51
2023-01-10T08:36:44.363Z,65.41
2023-01-10T08:37:44.465Z,65.41
2023-01-10T08:38:44.641Z,65.41
2023-01-10T08:39:44.834Z,65.41
2023-01-10T08:40:45.011Z,65.41
2023-01-10T08:41:45.231Z,65.51
2023-01-10T08:42:45.479Z,65.48
2023-01-10T08:43:45.550Z,65.28
2023-01-10T08:44:45.716Z,64.94
2023-01-10T08:45:45.890Z,64.84
2023-01-10T08:46:46.150Z,64.60
2023-01-10T08:47:46.255Z,63.86
2023-01-10T08:48:46.432Z,63.56
2023-01-10T08:49:46.586Z,63.24
2023-01-10T08:50:46.781Z,63.01
2023-01-10T08:51:46.951Z,63.01
2023-01-10T08:52:47.125Z,62.58
2023-01-10T08:53:47.319Z,62.78
2023-01-10T08:54:47.482Z,62.88
2023-01-10T08:55:47.650Z,62.37
2023-01-10T08:56:47.831Z,62.81
2023-01-10T08:57:48.014Z,62.81
2023-01-10T08:58:48.160Z,63.42
2023-01-10T08:59:48.345Z,63.65
2023-01-10T09:00:48.521Z,63.76
2023-01-10T09:01:48.793Z,64.17
2023-01-10T09:02:48.910Z,64.26
2023-01-10T09:03:49.053Z,64.40
2023-01-10T09:04:49.216Z,64.50
2023-01-10T09:05:49.364Z,64.81
2023-01-10T09:06:49.531Z,64.90
2023-01-10T09:07:49.705Z,65.11
2023-01-10T09:08:49.851Z,65.22
2023-01-10T09:09:50.038Z,64.90
2023-01-10T09:10:50.232Z,64.70
2023-01-10T09:11:50.400Z,64.81
2023-01-10T09:12:50.571Z,65.11
2023-01-10T09:13:50.760Z,64.90
2023-01-10T09:14:50.947Z,64.60
2023-01-10T09:15:51.149Z,64.70
2023-01-10T09:16:51.301Z,64.90
2023-01-10T09:17:51.441Z,64.81
2023-01-10T09:18:51.629Z,64.50
2023-01-10T09:19:51.823Z,64.70
2023-01-10T09:20:52.028Z,64.60
2023-01-10T09:21:52.179Z,64.63
2023-01-10T09:22:52.358Z,64.94
2023-01-10T09:23:52.554Z,64.94
2023-01-10T09:24:52.735Z,64.60
2023-01-10T09:25:52.928Z,64.37
2023-01-10T09:26:53.100Z,64.37
2023-01-10T09:27:53.289Z,64.06
2023-01-10T09:28:53.473Z,63.99
2023-01-10T09:29:53.641Z,64.50
2023-01-10T09:30:53.807Z,64.70
2023-01-10T09:31:53.974Z,64.70
2023-01-10T09:32:54.140Z,64.94
2023-01-10T09:33:54.290Z,64.73
2023-01-10T09:34:54.442Z,64.84
2023-01-10T09:35:54.632Z,64.84
2023-01-10T09:36:54.821Z,64.90
2023-01-10T09:37:55.006Z,64.84
2023-01-10T09:38:55.159Z,64.90
2023-01-10T09:39:55.334Z,65.11
2023-01-10T09:40:55.503Z,64.57
2023-01-10T09:41:55.701Z,63.73
2023-01-10T09:42:55.875Z,63.46
2023-01-10T09:43:56.030Z,62.93
2023-01-10T09:44:56.201Z,62.11
2023-01-10T09:45:56.360Z,61.27
2023-01-10T09:46:56.603Z,60.97
2023-01-10T09:47:56.681Z,61.30
2023-01-10T09:48:56.858Z,61.60
2023-01-10T09:49:57.069Z,61.20
2023-01-10T09:50:57.246Z,60.99
2023-01-10T09:51:59.091Z,60.59
2023-01-10T09:52:57.595Z,61.10
2023-01-10T09:54:09.978Z,60.97
2023-01-10T09:54:58.944Z,61.07
2023-01-10T09:55:58.118Z,61.17
2023-01-10T09:56:58.330Z,60.86
2023-01-10T09:57:58.471Z,60.86
2023-01-10T09:58:58.655Z,60.56
2023-01-10T09:59:58.837Z,61.17
2023-01-10T10:00:59.041Z,60.36
2023-01-10T10:01:59.229Z,60.63
2023-01-10T10:02:59.460Z,60.63
2023-01-10T10:03:59.536Z,60.83
2023-01-10T10:04:59.708Z,60.74
2023-01-10T10:06:11.263Z,59.82
2023-01-10T10:07:01.048Z,60.02
2023-01-10T10:08:00.241Z,60.02
2023-01-10T10:09:00.407Z,60.13
2023-01-10T10:10:00.589Z,60.53
2023-01-10T10:11:00.801Z,60.43
2023-01-10T10:12:00.939Z,60.22
2023-01-10T10:13:01.097Z,59.72
2023-01-10T10:14:01.281Z,60.13
2023-01-10T10:15:01.442Z,60.43
2023-01-10T10:16:01.706Z,60.43
2023-01-10T10:17:01.830Z,60.43
2023-01-10T10:18:01.996Z,60.53
2023-01-10T10:19:02.193Z,60.22
2023-01-10T10:20:02.368Z,60.15
2023-01-10T10:21:02.559Z,60.86
2023-01-10T10:22:02.754Z,60.76
2023-01-10T10:23:02.901Z,60.86
2023-01-10T10:24:03.098Z,60.76
2023-01-10T10:25:03.271Z,60.15
2023-01-10T10:26:03.457Z,60.36
2023-01-10T10:27:03.656Z,60.56
2023-01-10T10:28:03.808Z,60.43
2023-01-10T10:29:04.009Z,59.92
2023-01-10T10:30:04.160Z,60.02
2023-01-10T10:31:04.398Z,60.22
2023-01-10T10:32:04.519Z,59.84
2023-01-10T10:33:04.666Z,60.05
2023-01-10T10:34:04.838Z,59.95
2023-01-10T10:35:05.010Z,60.36
2023-01-10T10:36:05.179Z,60.36
2023-01-10T10:37:05.346Z,60.15
2023-01-10T10:38:05.506Z,59.84
2023-01-10T10:39:05.684Z,60.36
2023-01-10T10:40:05.912Z,60.66
2023-01-10T10:41:06.058Z,60.56
2023-01-10T10:42:06.231Z,59.95
2023-01-10T10:43:06.367Z,60.36
2023-01-10T10:44:06.536Z,59.95
2023-01-10T10:45:06.716Z,60.36
2023-01-10T10:46:06.993Z,59.54
2023-01-10T10:47:07.096Z,59.75
2023-01-10T10:48:07.276Z,59.75
2023-01-10T10:49:07.438Z,60.25
2023-01-10T10:50:07.628Z,60.22
2023-01-10T10:51:07.791Z,60.13
2023-01-10T10:52:07.966Z,60.33
2023-01-10T10:53:08.128Z,59.92
2023-01-10T10:54:08.328Z,59.52
2023-01-10T10:55:08.469Z,59.72
2023-01-10T10:56:08.672Z,59.62
2023-01-10T10:57:08.818Z,59.41
2023-01-10T10:58:08.985Z,59.41
2023-01-10T10:59:09.150Z,59.11
2023-01-10T11:00:09.336Z,59.21
2023-01-10T11:01:09.652Z,59.52
2023-01-10T11:02:09.787Z,60.02
2023-01-10T11:03:09.840Z,59.31
2023-01-10T11:04:10.007Z,59.21
2023-01-10T11:05:10.279Z,59.11
2023-01-10T11:06:10.426Z,59.11
2023-01-10T11:07:10.568Z,58.50
2023-01-10T11:08:10.706Z,58.80
2023-01-10T11:09:10.868Z,58.60
2023-01-10T11:10:11.048Z,59.03
2023-01-10T11:11:11.198Z,59.24
2023-01-10T11:12:11.384Z,59.24
2023-01-10T11:13:11.538Z,58.94
2023-01-10T11:14:11.717Z,59.24
2023-01-10T11:15:11.890Z,58.86
2023-01-10T11:16:12.084Z,59.27
2023-01-10T11:17:12.238Z,59.37
2023-01-10T11:18:12.402Z,59.57
2023-01-10T11:19:12.575Z,60.08
2023-01-10T11:20:12.757Z,60.08
2023-01-10T11:21:12.957Z,59.88
2023-01-10T11:22:13.130Z,59.98
2023-01-10T11:23:13.319Z,59.91
2023-01-10T11:24:13.490Z,60.21
2023-01-10T11:25:13.657Z,60.11
2023-01-10T11:26:13.875Z,60.11
2023-01-10T11:27:14.025Z,59.80
2023-01-10T11:28:14.167Z,60.41
2023-01-10T11:29:14.365Z,59.91
2023-01-10T11:30:14.540Z,60.11
2023-01-10T11:31:14.706Z,60.00
2023-01-10T11:32:14.893Z,60.00
2023-01-10T11:33:15.037Z,59.91
2023-01-10T11:34:15.219Z,59.91
2023-01-10T11:35:15.417Z,59.60
2023-01-10T11:36:15.602Z,59.91
2023-01-10T11:37:15.789Z,59.50
2023-01-10T11:38:15.934Z,59.39
2023-01-10T11:39:16.108Z,59.09
2023-01-10T11:40:16.293Z,59.09
2023-01-10T11:41:16.475Z,58.99
2023-01-10T11:42:16.628Z,59.27
2023-01-10T11:43:16.788Z,59.57
2023-01-10T11:44:16.955Z,59.06
2023-01-10T11:45:17.149Z,59.16
2023-01-10T11:46:17.370Z,59.37
2023-01-10T11:47:17.525Z,59.37
2023-01-10T11:48:18.579Z,59.09
2023-01-10T11:49:17.826Z,59.39
2023-01-10T11:50:18.018Z,59.19
2023-01-10T11:51:18.183Z,59.09
2023-01-10T11:52:18.353Z,59.50
2023-01-10T11:53:18.498Z,59.30
2023-01-10T11:54:18.677Z,59.60
2023-01-10T11:55:18.845Z,59.50
2023-01-10T11:56:19.011Z,59.70
2023-01-10T11:57:19.199Z,59.30
2023-01-10T11:58:19.342Z,59.53
2023-01-10T11:59:19.498Z,59.32
2023-01-10T12:00:19.688Z,59.53
2023-01-10T12:01:19.866Z,59.53
2023-01-10T12:02:20.081Z,59.63
2023-01-10T12:03:20.216Z,59.73
2023-01-10T12:04:20.383Z,59.83
2023-01-10T12:05:20.618Z,60.16
2023-01-10T12:06:20.767Z,59.96
2023-01-10T12:07:20.935Z,60.06
2023-01-10T12:08:21.085Z,59.96
2023-01-10T12:09:21.274Z,59.96
2023-01-10T12:10:21.471Z,60.47
2023-01-10T12:11:21.629Z,60.39
2023-01-10T12:12:21.816Z,60.30
2023-01-10T12:13:21.965Z,60.30
2023-01-10T12:14:22.146Z,59.89
2023-01-10T12:15:22.319Z,60.30
2023-01-10T12:16:22.769Z,59.78
2023-01-10T12:17:22.689Z,60.30
2023-01-10T12:18:22.823Z,60.50
2023-01-10T12:19:23.017Z,60.30
2023-01-10T12:20:23.187Z,60.50
2023-01-10T12:21:23.379Z,60.30
2023-01-10T12:22:23.533Z,60.19
2023-01-10T12:23:23.686Z,59.68
2023-01-10T12:24:23.836Z,59.86
2023-01-10T12:25:24.037Z,59.45
2023-01-10T12:26:24.227Z,59.35
2023-01-10T12:27:24.408Z,58.74
2023-01-10T12:28:24.582Z,58.74
2023-01-10T12:29:24.750Z,58.71
2023-01-10T12:30:25.020Z,58.40
2023-01-10T12:31:25.106Z,58.00
2023-01-10T12:32:25.296Z,58.20
2023-01-10T12:33:25.475Z,58.10
2023-01-10T12:34:25.607Z,58.10
2023-01-10T12:35:25.795Z,58.40
2023-01-10T12:36:25.953Z,58.10
2023-01-10T12:37:26.158Z,58.20
2023-01-10T12:38:26.296Z,58.58
2023-01-10T12:39:26.487Z,58.48
2023-01-10T12:40:26.649Z,58.28
2023-01-10T12:41:26.838Z,58.28
2023-01-10T12:42:27.055Z,58.48
2023-01-10T12:43:27.217Z,57.87
2023-01-10T12:44:27.385Z,58.28
2023-01-10T12:45:27.547Z,58.07
2023-01-10T12:46:56.479Z,58.38
2023-01-10T12:47:28.967Z,58.17
2023-01-10T12:48:28.065Z,58.28
2023-01-10T12:49:28.246Z,57.87
2023-01-10T12:50:28.436Z,57.87
2023-01-10T12:51:28.604Z,58.38
2023-01-10T12:52:28.775Z,58.07
2023-01-10T12:53:28.949Z,58.58
2023-01-10T12:54:29.098Z,58.38
2023-01-10T12:55:29.274Z,58.38
2023-01-10T12:56:29.455Z,58.28
2023-01-10T12:57:29.667Z,58.07
2023-01-10T12:58:29.850Z,58.58
2023-01-10T12:59:37.343Z,58.38